Time;durP1;ratioP1;P1;durP2;ratioP2;P2;SDS_P1;SDS_P2;PMS_P1;PMS_P2;Temp;Humidity;BMP_temperature;BMP_pressure;BME280_temperature;BME280_humidity;BME280_pressure;Samples;Min_cycle;Max_cycle;Signal;HPM_P1;HPM_P2
2024/01/13 00:04:51;;;;;;;298.05;278.15;;;1.70;99.90;;;;;;12348084;28;20047;-36
2024/01/13 00:10:53;;;;;;;309.05;288.48;;;1.60;99.90;;;;;;12359262;28;20403;-35
2024/01/13 00:16:55;;;;;;;292.90;273.65;;;1.70;99.90;;;;;;12416075;28;20050;-35
2024/01/13 00:22:57;;;;;;;289.02;269.73;;;1.70;99.90;;;;;;12357936;28;20054;-36
2024/01/13 00:28:59;;;;;;;300.15;280.08;;;1.70;99.90;;;;;;12364196;28;20051;-36
2024/01/13 00:35:02;;;;;;;292.42;273.38;;;1.70;99.90;;;;;;12386569;28;20504;-35
2024/01/13 00:41:05;;;;;;;293.13;273.92;;;1.70;99.90;;;;;;12374101;28;20058;-35
2024/01/13 00:47:09;;;;;;;288.45;269.55;;;1.70;99.90;;;;;;12357567;28;20487;-36
2024/01/13 00:53:11;;;;;;;295.02;275.55;;;1.70;99.90;;;;;;12367557;28;20093;-36
2024/01/13 00:59:12;;;;;;;299.98;280.58;;;1.60;99.90;;;;;;12335587;28;20387;-35
2024/01/13 01:05:15;;;;;;;301.95;282.33;;;1.70;99.90;;;;;;12364792;28;20054;-35
2024/01/13 01:11:17;;;;;;;315.48;294.42;;;1.80;99.90;;;;;;12344016;28;20071;-35
2024/01/13 01:17:18;;;;;;;308.27;288.10;;;1.80;99.90;;;;;;12367189;28;20055;-36
2024/01/13 01:23:20;;;;;;;299.55;280.13;;;1.80;99.90;;;;;;12360024;28;20136;-36
2024/01/13 01:29:22;;;;;;;298.83;279.50;;;1.70;99.90;;;;;;12350529;28;20482;-35
2024/01/13 01:35:24;;;;;;;282.48;264.35;;;1.70;99.90;;;;;;12374816;28;20141;-35
2024/01/13 01:41:26;;;;;;;287.05;268.45;;;1.80;99.90;;;;;;12444804;28;20073;-36
2024/01/13 01:47:31;;;;;;;293.23;274.42;;;1.80;99.90;;;;;;12382792;28;20089;-35
2024/01/13 01:53:35;;;;;;;280.92;262.50;;;1.80;99.90;;;;;;12370976;28;20509;-35
2024/01/13 01:59:37;;;;;;;277.98;260.13;;;1.80;99.90;;;;;;12372401;28;20051;-36
2024/01/13 02:05:39;;;;;;;284.52;266.15;;;1.80;99.90;;;;;;12366139;28;20103;-35
2024/01/13 02:11:41;;;;;;;272.92;255.45;;;1.80;99.90;;;;;;12374429;28;20042;-36
2024/01/13 02:17:43;;;;;;;277.20;259.38;;;1.80;99.90;;;;;;12399018;28;20051;-35
2024/01/13 02:23:45;;;;;;;281.05;263.00;;;1.90;99.90;;;;;;12371876;28;20058;-35
2024/01/13 02:29:48;;;;;;;284.05;265.58;;;1.80;99.90;;;;;;12371664;28;20042;-36
2024/01/13 02:35:50;;;;;;;277.15;259.27;;;1.80;99.90;;;;;;12358185;28;20091;-35
2024/01/13 02:41:52;;;;;;;285.15;266.60;;;1.80;99.90;;;;;;12428039;28;20598;-36
2024/01/13 02:48:14;;;;;;;290.73;272.10;;;1.80;99.90;;;;;;12438811;28;20055;-36
2024/01/13 02:54:32;;;;;;;293.40;274.27;;;1.80;99.90;;;;;;12358450;28;20049;-36
2024/01/13 03:00:34;;;;;;;304.65;284.85;;;1.90;99.90;;;;;;12372758;28;20058;-35
2024/01/13 03:06:36;;;;;;;288.92;270.02;;;1.70;99.90;;;;;;12368408;28;20054;-35
2024/01/13 03:12:38;;;;;;;291.73;272.70;;;1.80;99.90;;;;;;12442695;28;20502;-36
2024/01/13 03:18:41;;;;;;;287.75;269.17;;;1.70;99.90;;;;;;12404205;28;20418;-35
2024/01/13 03:24:45;;;;;;;281.98;264.15;;;1.70;99.90;;;;;;12378820;28;20065;-34
2024/01/13 03:30:46;;;;;;;301.85;282.52;;;1.60;99.90;;;;;;12372956;28;20042;-35
2024/01/13 03:36:48;;;;;;;301.90;282.42;;;1.60;99.90;;;;;;12359518;28;20058;-36
2024/01/13 03:42:50;;;;;;;303.00;283.25;;;1.70;99.90;;;;;;12377519;28;20043;-35
2024/01/13 03:48:52;;;;;;;255.73;239.40;;;1.70;99.90;;;;;;12384183;28;20046;-35
2024/01/13 03:54:54;;;;;;;258.70;242.52;;;1.70;99.90;;;;;;12353378;28;20176;-37
2024/01/13 04:00:56;;;;;;;251.52;235.60;;;1.70;99.90;;;;;;12361725;28;20699;-35
2024/01/13 04:06:58;;;;;;;251.95;235.95;;;1.70;99.90;;;;;;12439274;28;20145;-35
2024/01/13 04:13:00;;;;;;;248.95;233.13;;;1.70;99.90;;;;;;12363591;28;20043;-36
2024/01/13 04:19:02;;;;;;;242.63;227.15;;;1.70;99.90;;;;;;12446372;28;20046;-36
2024/01/13 04:25:05;;;;;;;255.90;239.55;;;1.70;99.90;;;;;;12334317;28;20097;-36
2024/01/13 04:31:07;;;;;;;265.08;248.10;;;1.70;99.90;;;;;;12355791;28;20074;-35
2024/01/13 04:37:09;;;;;;;250.25;234.63;;;1.60;99.90;;;;;;12359662;28;20526;-35
2024/01/13 04:43:11;;;;;;;254.35;238.40;;;1.60;99.90;;;;;;12364259;28;20051;-36
2024/01/13 04:49:13;;;;;;;265.05;248.65;;;1.70;99.90;;;;;;12413551;28;20050;-35
2024/01/13 04:55:15;;;;;;;258.00;241.82;;;1.70;99.90;;;;;;12361798;28;20104;-35
2024/01/13 05:01:17;;;;;;;267.55;250.85;;;1.60;99.90;;;;;;12346292;28;20050;-35
2024/01/13 05:07:20;;;;;;;261.90;245.85;;;1.60;99.90;;;;;;12343297;28;20418;-36
2024/01/13 05:13:22;;;;;;;257.57;241.97;;;1.50;99.90;;;;;;12366454;28;20506;-35
2024/01/13 05:19:24;;;;;;;262.48;246.48;;;1.50;99.90;;;;;;12386574;28;20054;-36
2024/01/13 05:25:26;;;;;;;257.20;241.65;;;1.50;99.90;;;;;;12343907;28;20434;-34
2024/01/13 05:31:28;;;;;;;256.50;240.68;;;1.50;99.90;;;;;;12368321;28;20069;-36
2024/01/13 05:37:30;;;;;;;248.95;233.65;;;1.60;99.90;;;;;;12360693;28;20049;-36
2024/01/13 05:43:32;;;;;;;250.70;235.35;;;1.50;99.90;;;;;;12356136;28;20088;-36
2024/01/13 05:49:34;;;;;;;244.20;229.52;;;1.50;99.90;;;;;;12411639;28;20509;-36
2024/01/13 05:55:36;;;;;;;226.23;212.38;;;1.50;99.90;;;;;;12355604;28;20407;-35
2024/01/13 06:01:38;;;;;;;242.77;228.30;;;1.50;99.90;;;;;;12338135;28;20383;-36
2024/01/13 06:07:40;;;;;;;233.50;219.40;;;1.50;99.90;;;;;;12336667;28;20426;-35
2024/01/13 06:13:44;;;;;;;233.95;219.75;;;1.50;99.90;;;;;;12369868;28;20046;-36
2024/01/13 06:19:47;;;;;;;232.90;218.85;;;1.50;99.90;;;;;;12408336;28;20069;-35
2024/01/13 06:25:50;;;;;;;238.38;223.75;;;1.60;99.90;;;;;;12367450;28;20498;-35
2024/01/13 06:31:53;;;;;;;247.63;232.50;;;1.70;99.90;;;;;;12366072;28;20050;-35
2024/01/13 06:37:55;;;;;;;238.13;223.63;;;1.50;99.90;;;;;;12361219;28;20168;-35
2024/01/13 06:43:57;;;;;;;235.60;221.20;;;1.50;99.90;;;;;;12373184;28;20490;-35
2024/01/13 06:49:59;;;;;;;236.07;221.70;;;1.50;99.90;;;;;;12393492;28;20080;-36
2024/01/13 06:56:02;;;;;;;241.07;226.23;;;1.50;99.90;;;;;;12363048;28;20532;-35
2024/01/13 07:02:04;;;;;;;227.10;213.10;;;1.50;99.90;;;;;;12356357;28;20096;-36
2024/01/13 07:08:08;;;;;;;233.27;219.05;;;1.50;99.90;;;;;;12378217;28;20057;-35
2024/01/13 07:14:10;;;;;;;230.32;216.48;;;1.60;99.90;;;;;;12377028;28;20062;-35
2024/01/13 07:20:12;;;;;;;223.98;210.13;;;1.50;99.90;;;;;;12406064;28;20066;-36
2024/01/13 07:26:14;;;;;;;214.82;201.68;;;1.50;99.90;;;;;;12352328;28;20047;-36
2024/01/13 07:32:17;;;;;;;213.60;200.30;;;1.50;99.90;;;;;;12359531;28;20043;-35
2024/01/13 07:38:19;;;;;;;221.13;207.38;;;1.50;99.90;;;;;;12348664;28;20047;-36
2024/01/13 07:44:21;;;;;;;228.25;213.98;;;1.60;99.90;;;;;;12376039;28;20051;-35
2024/01/13 07:50:23;;;;;;;210.10;196.88;;;1.50;99.90;;;;;;12405644;28;20509;-34
2024/01/13 07:56:25;;;;;;;213.15;199.63;;;1.50;99.90;;;;;;12371690;28;20126;-36
2024/01/13 08:02:27;;;;;;;222.27;208.60;;;1.60;99.90;;;;;;12363205;28;20514;-35
2024/01/13 08:08:29;;;;;;;211.30;198.02;;;1.60;99.90;;;;;;12347307;28;20101;-35
2024/01/13 08:14:31;;;;;;;214.25;200.88;;;1.80;99.90;;;;;;12375850;28;20505;-35
2024/01/13 08:20:32;;;;;;;213.80;200.02;;;1.80;99.90;;;;;;12408066;28;20077;-35
2024/01/13 08:26:35;;;;;;;238.05;223.00;;;1.90;99.90;;;;;;12352273;28;20141;-36
2024/01/13 08:32:37;;;;;;;234.90;219.88;;;1.90;99.90;;;;;;12365197;28;20046;-35
2024/01/13 08:38:43;;;;;;;242.25;226.73;;;1.90;99.90;;;;;;12373292;28;20433;-35
2024/01/13 08:44:45;;;;;;;245.88;230.80;;;1.90;99.90;;;;;;12422142;28;20082;-35
2024/01/13 08:50:47;;;;;;;262.17;246.05;;;1.90;99.90;;;;;;12419217;28;20550;-35
2024/01/13 08:56:50;;;;;;;245.45;229.55;;;1.90;99.90;;;;;;12359643;28;20065;-35
2024/01/13 09:02:53;;;;;;;235.00;219.82;;;1.90;99.90;;;;;;12362598;28;20545;-35
2024/01/13 09:08:55;;;;;;;226.02;211.55;;;1.90;99.90;;;;;;12372029;28;20040;-36
2024/01/13 09:14:57;;;;;;;226.98;212.75;;;1.90;99.90;;;;;;12367394;28;20046;-35
2024/01/13 09:20:59;;;;;;;228.95;214.00;;;2.10;99.90;;;;;;12378367;28;20256;-36
2024/01/13 09:27:01;;;;;;;259.73;243.75;;;2.10;99.90;;;;;;12376419;28;20469;-36
2024/01/13 09:33:05;;;;;;;290.48;272.67;;;2.00;99.90;;;;;;12358534;28;20452;-35
2024/01/13 09:39:14;;;;;;;276.83;259.90;;;2.00;99.90;;;;;;12352236;28;20047;-34
2024/01/13 09:45:17;;;;;;;247.32;232.38;;;2.10;99.90;;;;;;12358013;28;20047;-36
2024/01/13 09:51:19;;;;;;;260.65;244.48;;;2.10;99.90;;;;;;12414758;28;20050;-35
2024/01/13 09:57:35;;;;;;;274.15;257.83;;;2.20;99.90;;;;;;12358731;28;20177;-35
2024/01/13 10:03:37;;;;;;;274.80;258.00;;;2.10;99.90;;;;;;12355640;28;20058;-35
2024/01/13 10:09:39;;;;;;;284.10;266.95;;;2.10;99.90;;;;;;12380332;28;20042;-36
2024/01/13 10:15:41;;;;;;;273.33;257.13;;;2.10;99.90;;;;;;12342339;28;20479;-35
2024/01/13 10:21:45;;;;;;;248.70;233.98;;;2.10;99.90;;;;;;12390349;28;20428;-35
2024/01/13 10:27:47;;;;;;;235.63;221.10;;;2.10;99.90;;;;;;12352618;28;20062;-35
2024/01/13 10:33:51;;;;;;;217.68;204.25;;;2.20;99.90;;;;;;12371491;28;20047;-36
2024/01/13 10:39:54;;;;;;;219.33;205.53;;;2.20;99.90;;;;;;12354527;28;20065;-36
2024/01/13 10:46:04;;;;;;;225.55;211.48;;;2.20;99.90;;;;;;12369088;28;20055;-36
2024/01/13 10:52:06;;;;;;;251.23;235.77;;;2.20;99.90;;;;;;12397758;28;20078;-36
2024/01/13 10:58:10;;;;;;;239.40;224.30;;;2.30;99.90;;;;;;12354700;28;20487;-35
2024/01/13 11:04:12;;;;;;;245.70;229.83;;;2.30;99.90;;;;;;12354608;28;20061;-35
2024/01/13 11:10:20;;;;;;;232.18;217.48;;;2.50;99.90;;;;;;12390065;28;20085;-35
2024/01/13 11:16:25;;;;;;;242.00;226.60;;;2.50;99.90;;;;;;12385414;28;20040;-35
2024/01/13 11:22:38;;;;;;;243.57;227.80;;;2.50;99.90;;;;;;12357037;28;20059;-36
2024/01/13 11:28:53;;;;;;;252.25;236.07;;;2.40;99.90;;;;;;12380563;28;20548;-36
2024/01/13 11:34:55;;;;;;;247.75;231.63;;;2.40;99.90;;;;;;12411250;28;20490;-35
2024/01/13 11:40:57;;;;;;;247.32;231.52;;;2.50;99.90;;;;;;12360090;28;20128;-36
2024/01/13 11:47:05;;;;;;;257.27;240.80;;;2.50;99.90;;;;;;12364167;28;20065;-36
2024/01/13 11:53:36;;;;;;;256.25;239.88;;;2.50;99.90;;;;;;12401682;28;20042;-36
2024/01/13 11:59:39;;;;;;;274.75;256.55;;;2.50;99.90;;;;;;12336853;28;20053;-36
2024/01/13 12:05:41;;;;;;;280.30;262.20;;;2.50;99.90;;;;;;12386185;28;20132;-36
2024/01/13 12:11:53;;;;;;;271.15;253.63;;;2.50;99.90;;;;;;12342887;28;20573;-36
2024/01/13 12:17:55;;;;;;;279.48;261.17;;;2.40;99.90;;;;;;12393233;28;20128;-36
2024/01/13 12:23:57;;;;;;;258.33;241.48;;;2.40;99.90;;;;;;12346248;28;20050;-35
2024/01/13 12:30:00;;;;;;;274.63;256.85;;;2.40;99.90;;;;;;12361745;28;20530;-35
2024/01/13 12:36:04;;;;;;;258.10;241.82;;;2.40;99.90;;;;;;12356792;28;20113;-36
2024/01/13 12:42:06;;;;;;;246.60;231.00;;;2.40;99.90;;;;;;12363764;28;20491;-36
2024/01/13 12:48:08;;;;;;;254.77;238.80;;;2.40;99.90;;;;;;12354585;28;20050;-35
2024/01/13 12:54:14;;;;;;;248.57;233.07;;;2.40;99.90;;;;;;12374521;28;20513;-35
2024/01/13 13:00:18;;;;;;;250.82;235.07;;;2.40;99.90;;;;;;12345192;28;20639;-34
2024/01/13 13:06:20;;;;;;;249.23;234.23;;;2.50;99.90;;;;;;12368316;28;20061;-35
2024/01/13 13:12:22;;;;;;;241.90;226.85;;;2.50;99.90;;;;;;12418496;28;20100;-35
2024/01/13 13:18:24;;;;;;;243.52;227.93;;;2.50;99.90;;;;;;12393644;28;20254;-35
2024/01/13 13:24:27;;;;;;;229.77;215.05;;;2.60;99.90;;;;;;12362906;28;20050;-35
2024/01/13 13:30:29;;;;;;;234.88;220.07;;;2.70;99.90;;;;;;12357810;28;20054;-36
2024/01/13 13:36:32;;;;;;;242.65;227.05;;;2.70;99.90;;;;;;12353170;28;20055;-36
2024/01/13 13:42:34;;;;;;;250.23;233.45;;;2.70;99.90;;;;;;12336151;28;20062;-36
2024/01/13 13:48:36;;;;;;;259.60;242.25;;;2.80;99.90;;;;;;12376691;28;20042;-36
2024/01/13 13:54:39;;;;;;;261.42;244.05;;;2.80;99.90;;;;;;12350766;28;20061;-36
2024/01/13 14:00:41;;;;;;;274.88;256.20;;;2.80;99.90;;;;;;12347431;28;20188;-35
2024/01/13 14:06:43;;;;;;;268.33;250.02;;;2.70;99.90;;;;;;12352535;28;20055;-36
2024/01/13 14:12:45;;;;;;;293.08;273.33;;;2.80;99.90;;;;;;12367954;28;20061;-35
2024/01/13 14:18:47;;;;;;;270.35;252.40;;;2.70;99.90;;;;;;12400826;28;20047;-35
2024/01/13 14:24:50;;;;;;;282.57;263.87;;;2.70;99.90;;;;;;12365485;28;20054;-35
2024/01/13 14:31:12;;;;;;;283.75;264.52;;;2.70;99.90;;;;;;12333859;28;20139;-35
2024/01/13 14:37:16;;;;;;;282.60;263.95;;;2.70;99.90;;;;;;12344906;28;20043;-35
2024/01/13 14:43:18;;;;;;;284.88;265.60;;;2.70;99.90;;;;;;12367900;28;20062;-35
2024/01/13 14:49:19;;;;;;;274.30;255.73;;;2.70;99.90;;;;;;12371125;28;20054;-34
2024/01/13 14:55:22;;;;;;;263.50;245.38;;;2.70;99.90;;;;;;12357700;28;20054;-35
2024/01/13 15:01:23;;;;;;;255.10;238.02;;;2.70;99.90;;;;;;12354802;28;20055;-35
2024/01/13 15:07:25;;;;;;;258.63;240.68;;;2.70;99.90;;;;;;12360847;28;20505;-36
2024/01/13 15:13:27;;;;;;;227.95;212.23;;;2.70;99.90;;;;;;12367649;28;20097;-35
2024/01/13 15:19:29;;;;;;;234.55;218.85;;;2.70;99.90;;;;;;12371963;28;20088;-35
2024/01/13 15:25:31;;;;;;;239.55;223.32;;;2.60;99.90;;;;;;12366514;28;20486;-35
2024/01/13 15:31:33;;;;;;;241.40;225.25;;;2.70;99.90;;;;;;12367637;28;20050;-36
2024/01/13 15:37:38;;;;;;;240.05;224.02;;;2.70;99.90;;;;;;12351961;28;20351;-35
2024/01/13 15:43:40;;;;;;;262.98;245.20;;;2.60;99.90;;;;;;12353404;28;20503;-35
2024/01/13 15:49:43;;;;;;;249.68;233.02;;;2.60;99.90;;;;;;12397416;28;20054;-35
2024/01/13 15:55:45;;;;;;;267.05;248.60;;;2.60;99.90;;;;;;12347242;28;20055;-35
2024/01/13 16:01:48;;;;;;;269.05;250.98;;;2.60;99.90;;;;;;12353460;28;20047;-35
2024/01/13 16:07:50;;;;;;;277.63;258.60;;;2.50;99.90;;;;;;12366415;28;20054;-35
2024/01/13 16:13:58;;;;;;;269.60;251.32;;;2.50;99.90;;;;;;12342573;28;20039;-36
2024/01/13 16:19:59;;;;;;;252.57;235.35;;;2.50;99.90;;;;;;12367220;28;20054;-36
2024/01/13 16:26:02;;;;;;;254.70;237.40;;;2.50;99.90;;;;;;12346997;28;20043;-36
2024/01/13 16:32:04;;;;;;;237.80;221.90;;;2.60;99.90;;;;;;12366113;28;20406;-35
2024/01/13 16:38:06;;;;;;;223.48;208.63;;;2.60;99.90;;;;;;12364757;28;20066;-35
2024/01/13 16:44:08;;;;;;;226.02;211.30;;;2.60;99.90;;;;;;12350945;28;20070;-36
2024/01/13 16:50:11;;;;;;;246.38;230.23;;;2.60;99.90;;;;;;12345985;28;20085;-36
2024/01/13 16:56:19;;;;;;;263.08;245.40;;;2.60;99.90;;;;;;12347697;28;20423;-36
2024/01/13 17:02:21;;;;;;;271.52;253.73;;;2.60;99.90;;;;;;12361865;28;20050;-36
2024/01/13 17:08:41;;;;;;;268.27;250.20;;;2.60;99.90;;;;;;12354685;28;20047;-35
2024/01/13 17:14:43;;;;;;;304.52;283.55;;;2.60;99.90;;;;;;12392013;28;20406;-36
2024/01/13 17:20:45;;;;;;;310.15;288.90;;;2.60;99.90;;;;;;12362682;28;20054;-35
2024/01/13 17:26:47;;;;;;;319.85;297.83;;;2.60;99.90;;;;;;12334916;28;20066;-36
2024/01/13 17:32:49;;;;;;;334.88;312.30;;;2.60;99.90;;;;;;12361309;28;20100;-36
2024/01/13 17:38:52;;;;;;;343.77;319.95;;;2.60;99.90;;;;;;12362585;28;20478;-35
2024/01/13 17:44:58;;;;;;;335.17;312.35;;;2.60;99.90;;;;;;12357261;28;20111;-35
2024/01/13 17:51:02;;;;;;;347.95;323.58;;;2.50;99.90;;;;;;12386972;28;20151;-35
2024/01/13 17:57:04;;;;;;;367.70;341.88;;;2.50;99.90;;;;;;12353919;28;20058;-35
2024/01/13 18:03:08;;;;;;;337.80;314.40;;;2.60;99.90;;;;;;12358604;28;20556;-36
2024/01/13 18:09:10;;;;;;;348.95;325.05;;;2.60;99.90;;;;;;12376020;28;20043;-35
2024/01/13 18:15:12;;;;;;;345.58;321.98;;;2.50;99.90;;;;;;12342818;28;20505;-35
2024/01/13 18:21:14;;;;;;;338.17;314.92;;;2.60;99.90;;;;;;12401972;28;20059;-35
2024/01/13 18:27:17;;;;;;;341.85;318.27;;;2.60;99.90;;;;;;12352984;28;20077;-35
2024/01/13 18:33:21;;;;;;;337.55;314.45;;;2.60;99.90;;;;;;12366456;28;20085;-35
2024/01/13 18:39:23;;;;;;;323.90;301.70;;;2.60;99.90;;;;;;12369958;28;20054;-35
2024/01/13 18:45:25;;;;;;;330.55;308.35;;;2.50;99.90;;;;;;12370308;28;20065;-35
2024/01/13 18:51:27;;;;;;;362.73;338.05;;;2.50;99.90;;;;;;12421438;28;20057;-36
2024/01/13 18:57:29;;;;;;;367.35;342.83;;;2.50;99.90;;;;;;12368936;28;20053;-36
2024/01/13 19:03:31;;;;;;;342.00;319.48;;;2.50;99.90;;;;;;12348111;28;20089;-35
2024/01/13 19:09:37;;;;;;;344.98;322.10;;;2.50;99.90;;;;;;12413005;28;20080;-35
2024/01/13 19:15:39;;;;;;;318.50;297.63;;;2.40;99.90;;;;;;12345015;28;20050;-35
2024/01/13 19:21:41;;;;;;;339.73;317.55;;;2.30;99.90;;;;;;12387451;28;20153;-36
2024/01/13 19:27:43;;;;;;;329.75;308.35;;;2.30;99.90;;;;;;12355061;28;20051;-36
2024/01/13 19:33:45;;;;;;;336.23;314.30;;;2.20;99.90;;;;;;12362823;28;20097;-35
2024/01/13 19:39:51;;;;;;;356.75;333.42;;;2.20;99.90;;;;;;12364301;28;20638;-36
2024/01/13 19:45:53;;;;;;;336.67;314.48;;;2.20;99.90;;;;;;12389982;28;20423;-39
2024/01/13 19:51:55;;;;;;;340.50;318.05;;;2.20;99.90;;;;;;12410739;28;20066;-35
2024/01/13 19:57:56;;;;;;;350.17;327.05;;;2.20;99.90;;;;;;12355896;28;20077;-35
2024/01/13 20:04:03;;;;;;;347.38;324.20;;;2.30;99.90;;;;;;12358081;28;20062;-35
2024/01/13 20:10:06;;;;;;;358.75;334.60;;;2.30;99.90;;;;;;12354190;28;20055;-35
2024/01/13 20:16:07;;;;;;;345.00;321.88;;;2.40;99.90;;;;;;12354307;28;20047;-35
2024/01/13 20:22:09;;;;;;;359.58;335.08;;;2.40;99.90;;;;;;12362779;28;20058;-36
2024/01/13 20:28:11;;;;;;;337.45;314.65;;;2.40;99.90;;;;;;12368513;28;20046;-35
2024/01/13 20:34:13;;;;;;;335.20;312.83;;;2.40;99.90;;;;;;12370468;28;20078;-36
2024/01/13 20:40:15;;;;;;;323.45;301.67;;;2.50;99.90;;;;;;12364134;28;20550;-35
2024/01/13 20:46:17;;;;;;;378.67;352.85;;;2.50;99.90;;;;;;12348453;28;20489;-35
2024/01/13 20:52:19;;;;;;;359.15;334.83;;;2.50;99.90;;;;;;12403787;28;20058;-35
2024/01/13 20:58:21;;;;;;;340.42;317.25;;;2.50;99.90;;;;;;12363393;28;20074;-36
2024/01/13 21:04:23;;;;;;;350.08;326.52;;;2.50;99.90;;;;;;12355169;28;20060;-35
2024/01/13 21:10:25;;;;;;;340.70;317.67;;;2.50;99.90;;;;;;12350553;28;20061;-36
2024/01/13 21:16:27;;;;;;;349.98;326.27;;;2.50;99.90;;;;;;12385361;28;20097;-37
2024/01/13 21:22:29;;;;;;;350.58;326.58;;;2.50;99.90;;;;;;12376015;28;20073;-35
2024/01/13 21:28:30;;;;;;;336.67;313.45;;;2.50;99.90;;;;;;12361006;28;20180;-36
2024/01/13 21:34:32;;;;;;;315.45;293.95;;;2.50;99.90;;;;;;12345609;28;20058;-36
2024/01/13 21:40:36;;;;;;;333.33;310.92;;;2.50;99.90;;;;;;12360028;28;20077;-35
2024/01/13 21:46:39;;;;;;;320.48;298.75;;;2.50;99.90;;;;;;12359752;28;20047;-35
2024/01/13 21:52:41;;;;;;;331.27;308.50;;;2.50;99.90;;;;;;12363631;28;20564;-35
2024/01/13 21:58:43;;;;;;;335.10;311.77;;;2.60;99.90;;;;;;12361339;28;20047;-35
2024/01/13 22:04:45;;;;;;;338.50;315.27;;;2.60;99.90;;;;;;12375618;28;20054;-36
2024/01/13 22:10:46;;;;;;;314.92;293.50;;;2.60;99.90;;;;;;12399044;28;20047;-35
2024/01/13 22:16:49;;;;;;;331.42;309.13;;;2.60;99.90;;;;;;12408334;28;20119;-36
2024/01/13 22:22:50;;;;;;;343.95;320.58;;;2.60;99.90;;;;;;12390595;28;20058;-36
2024/01/13 22:28:53;;;;;;;364.80;340.25;;;2.60;99.90;;;;;;12365549;28;20140;-36
2024/01/13 22:34:55;;;;;;;342.20;319.33;;;2.50;99.90;;;;;;12370905;28;20072;-36
2024/01/13 22:40:57;;;;;;;377.55;351.88;;;2.50;99.90;;;;;;12372148;28;20042;-35
2024/01/13 22:47:12;;;;;;;353.17;329.15;;;2.50;99.90;;;;;;12359475;28;20053;-35
2024/01/13 22:53:14;;;;;;;313.83;292.52;;;2.50;99.90;;;;;;12372666;28;20516;-35
2024/01/13 22:59:16;;;;;;;295.30;275.35;;;2.50;99.90;;;;;;12358507;28;20078;-36
2024/01/13 23:05:18;;;;;;;319.38;297.58;;;2.50;99.90;;;;;;12377733;28;20093;-36
2024/01/13 23:11:20;;;;;;;306.70;286.15;;;2.60;99.90;;;;;;12380606;28;20051;-35
2024/01/13 23:17:22;;;;;;;297.52;277.38;;;2.50;99.90;;;;;;12380446;28;20070;-35
2024/01/13 23:23:24;;;;;;;309.45;288.70;;;2.60;99.90;;;;;;12358345;28;20058;-35
2024/01/13 23:29:27;;;;;;;311.25;290.05;;;2.60;99.90;;;;;;12374462;28;20058;-35
2024/01/13 23:35:29;;;;;;;296.75;276.58;;;2.60;99.90;;;;;;12364665;28;20082;-35
2024/01/13 23:41:31;;;;;;;304.73;283.80;;;2.60;99.90;;;;;;12355549;28;20062;-34
2024/01/13 23:47:32;;;;;;;298.50;278.08;;;2.60;99.90;;;;;;12359736;28;20053;-35
2024/01/13 23:53:34;;;;;;;283.98;265.23;;;2.70;99.90;;;;;;12415439;28;20051;-35
2024/01/13 23:59:36;;;;;;;293.23;273.77;;;2.70;99.90;;;;;;12361235;28;20050;-35
